Latest Weather Observations for Geelong Racecourse

IDV60801

Issued at 6:52 pm EST Wednesday 19 September 2018 (issued every 10 minutes, with the page automatically refreshed every 10 minutes)

About weather observations | Map of weather stations | Latest weather observations for VIC | Other Formats
Station Details ID: 087184 Name: GEELONG RACECOURSE Lat: -38.17 Lon: 144.38 Height: 12.9 m
Data from the previous 72 hours. | See also: Recent months at Geelong Racecourse
Date/Time
EST
Temp
°C
App
Temp
°C
Dew
Point
°C
Rel
Hum
%
Delta-T
°C
Wind Press
QNH
hPa
Press
MSL
hPa
Rain since
9am
mm
Dir  Spd
km/h
Gust
km/h
Spd
kts
Gust
kts
19/06:30pm 9.7 8.6 4.9 72 2.2 CALM 0 2 0 1 1016.1 1016.1 0.6
19/06:00pm 10.6 8.2 5.4 70 2.4 S 7 9 4 5 1015.8 1015.8 0.6
19/05:30pm 11.0 7.9 5.5 69 2.5 S 11 13 6 7 1015.5 1015.5 0.6
19/05:00pm 11.7 8.9 5.3 65 2.9 S 9 15 5 8 1015.2 1015.2 0.6
19/04:30pm 12.3 9.1 5.0 61 3.4 SSW 11 17 6 9 1015.0 1015.0 0.6
19/04:00pm 12.8 10.3 6.4 65 3.0 S 9 13 5 7 1014.8 1014.8 0.4
19/03:30pm 13.5 9.4 6.1 61 3.5 WSW 17 24 9 13 1014.5 1014.5 0.4
19/03:00pm 10.3 4.9 4.5 67 2.6 WSW 22 48 12 26 1014.5 1014.5 0.4
19/02:55pm 9.9 4.7 3.4 64 2.8 WSW 20 48 11 26 1014.7 1014.7 0.4
19/02:30pm 12.7 7.7 4.4 57 3.8 W 20 32 11 17 1014.2 1014.2 0.0
19/02:00pm 14.3 8.7 3.5 48 4.9 W 22 33 12 18 1013.9 1013.9 0.0
19/01:30pm 13.8 8.7 4.1 52 4.4 WNW 20 32 11 17 1013.9 1013.9 0.0
19/01:00pm 14.0 8.5 3.8 50 4.6 W 22 32 12 17 1013.7 1013.7 0.0
19/12:30pm 13.5 8.8 5.2 57 3.9 W 19 32 10 17 1013.8 1013.8 0.0
19/12:00pm 13.4 8.4 4.8 56 4.0 W 20 30 11 16 1013.7 1013.7 0.0
19/11:30am 12.7 7.5 5.6 62 3.3 WSW 22 33 12 18 1013.6 1013.6 0.0
19/11:00am 11.9 6.7 5.5 65 3.0 W 22 35 12 19 1013.4 1013.4 0.0
19/10:30am 11.3 6.1 5.6 68 2.6 W 22 35 12 19 1013.2 1013.2 0.0
19/10:00am 10.4 5.0 6.2 75 2.0 W 24 37 13 20 1013.2 1013.2 0.0
19/09:30am 9.9 4.9 6.4 79 1.6 W 22 33 12 18 1013.1 1013.1 0.0
19/09:00am 9.2 4.6 6.3 82 1.3 W 20 32 11 17 1012.9 1012.9 0.8
19/08:30am 8.1 3.5 6.7 91 0.6 WNW 20 30 11 16 1012.7 1012.7 0.8
19/08:00am 7.2 2.7 6.0 92 0.5 WNW 19 28 10 15 1012.3 1012.3 0.8
19/07:30am 6.3 2.0 5.3 93 0.4 NW 17 28 9 15 1011.9 1011.9 0.8
19/07:00am 6.0 2.4 5.0 93 0.4 NW 13 22 7 12 1011.6 1011.6 0.8
19/06:30am 6.1 3.7 5.1 93 0.4 WNW 7 15 4 8 1011.7 1011.7 0.8
19/06:00am 6.1 2.1 5.1 93 0.4 WNW 15 24 8 13 1010.8 1010.8 0.8
19/05:30am 6.5 1.9 5.5 93 0.4 NW 19 26 10 14 1010.3 1010.3 0.8
19/05:00am 6.8 3.7 5.7 93 0.5 WNW 11 17 6 9 1010.2 1010.2 0.8
19/04:30am 6.6 3.5 5.4 92 0.5 W 11 20 6 11 1009.8 1009.8 0.8
19/04:00am 6.7 3.6 5.7 93 0.4 WNW 11 20 6 11 1009.4 1009.4 0.8
19/03:30am 6.8 3.7 5.6 92 0.5 WNW 11 17 6 9 1009.0 1009.0 0.8
19/03:00am 6.9 3.5 5.8 93 0.5 WNW 13 20 7 11 1009.1 1009.1 0.8
19/02:30am 7.5 3.8 6.3 92 0.5 NW 15 20 8 11 1009.0 1009.0 0.8
19/02:00am 7.8 4.9 6.6 92 0.6 NW 11 17 6 9 1009.3 1009.3 0.8
19/01:30am 8.0 5.9 6.8 92 0.6 NW 7 9 4 5 1009.8 1009.8 0.8
19/01:00am 8.6 6.7 7.4 92 0.6 NW 7 9 4 5 1010.0 1010.0 0.8
19/12:30am 9.2 7.4 8.0 92 0.6 NW 7 11 4 6 1010.2 1010.2 0.8
19/12:00am 9.5 7.4 8.3 92 0.6 NW 9 15 5 8 1010.5 1010.5 0.8
 
Date/Time
EST
Temp
°C
App
Temp
°C
Dew
Point
°C
Rel
Hum
%
Delta-T
°C
Wind Press
QNH
hPa
Press
MSL
hPa
Rain since
9am
mm
Dir  Spd
km/h
Gust
km/h
Spd
kts
Gust
kts
18/11:30pm 9.4 7.3 8.3 93 0.5 NW 9 15 5 8 1010.6 1010.6 0.8
18/11:00pm 8.7 7.8 7.6 93 0.5 NNW 2 6 1 3 1010.4 1010.4 0.8
18/10:30pm 8.3 7.7 7.2 93 0.5 CALM 0 2 0 1 1010.3 1010.3 0.8
18/10:00pm 9.1 7.9 8.0 93 0.5 WNW 4 6 2 3 1010.2 1010.2 0.8
18/09:30pm 9.4 7.7 8.3 93 0.5 WNW 7 15 4 8 1010.3 1010.3 0.8
18/09:00pm 9.4 7.3 8.2 92 0.6 WNW 9 15 5 8 1010.1 1010.1 0.6
18/08:30pm 10.1 8.2 7.5 84 1.2 WNW 7 15 4 8 1010.2 1010.2 0.6
18/08:00pm 10.0 8.0 7.3 83 1.3 WSW 7 11 4 6 1010.0 1010.0 0.6
18/07:30pm 10.6 8.1 8.0 84 1.3 WSW 11 17 6 9 1009.7 1009.7 0.6
18/07:00pm 11.3 9.6 8.3 82 1.5 WSW 7 13 4 7 1009.2 1009.2 0.6
18/06:30pm 11.9 9.2 8.9 82 1.5 W 13 22 7 12 1008.9 1008.9 0.6
18/06:00pm 12.4 8.7 10.1 86 1.2 WNW 20 32 11 17 1008.0 1008.0 0.6
18/05:30pm 12.3 8.3 9.0 80 1.7 WNW 20 35 11 19 1007.8 1007.8 0.4
18/05:00pm 14.2 9.6 6.6 60 3.7 WNW 20 32 11 17 1007.5 1007.5 0.0
18/04:30pm 17.1 11.9 3.8 41 6.2 NW 20 33 11 18 1006.7 1006.7 0.0
18/04:00pm 17.6 11.3 3.9 40 6.4 NW 26 37 14 20 1006.8 1006.8 0.0
18/03:30pm 17.6 11.5 4.6 42 6.2 NW 26 37 14 20 1006.7 1006.7 0.0
18/03:00pm 17.6 11.1 4.6 42 6.2 NW 28 43 15 23 1006.7 1006.7 0.0
18/02:30pm 18.3 12.8 5.8 44 6.1 NW 24 39 13 21 1007.2 1007.2 0.0
18/02:08pm 17.7 11.3 5.0 43 6.1 WNW 28 52 15 28 1007.1 1007.1 0.0
18/02:00pm 17.4 10.6 5.0 44 6.0 WNW 30 44 16 24 1007.0 1007.0 0.0
18/01:38pm 19.1 11.8 2.5 33 7.7 NW 30 48 16 26 1006.9 1006.9 0.0
18/01:30pm 18.9 11.5 1.9 32 7.7 NW 30 43 16 23 1007.1 1007.1 0.0
18/01:15pm 17.7 9.8 0.8 32 7.4 NW 32 52 17 28 1007.6 1007.6 0.0
18/01:00pm 18.1 9.6 0.7 31 7.7 NW 35 50 19 27 1007.4 1007.4 0.0
18/12:30pm 19.0 11.0 1.5 31 7.9 NW 33 54 18 29 1007.7 1007.7 0.0
18/12:05pm 18.0 9.9 -0.3 29 7.9 NW 32 52 17 28 1007.3 1007.3 0.0
18/12:00pm 18.2 10.1 -0.1 29 8.0 NW 32 48 17 26 1007.7 1007.7 0.0
18/11:30am 18.3 10.4 -1.5 26 8.4 NNW 30 43 16 23 1007.6 1007.6 0.0
18/11:00am 18.6 12.3 -1.3 26 8.5 NNW 22 33 12 18 1007.4 1007.4 0.0
18/10:30am 18.2 11.1 -1.6 26 8.3 NNW 26 37 14 20 1007.6 1007.6 0.0
18/10:00am 18.2 11.6 -0.6 28 8.1 NNW 24 41 13 22 1007.8 1007.8 0.0
18/09:30am 17.9 11.3 -0.4 29 7.9 NNW 24 35 13 19 1008.3 1008.3 0.0
18/09:00am 16.0 10.4 -0.2 33 6.9 NNW 19 28 10 15 1008.5 1008.5 0.0
18/08:30am 15.3 8.6 -1.3 32 6.8 N 24 35 13 19 1008.0 1008.0 0.0
18/08:00am 15.3 7.7 -2.2 30 7.1 N 28 43 15 23 1008.5 1008.5 0.0
18/07:30am 12.1 7.1 1.1 47 4.6 NNE 17 24 9 13 1009.0 1009.0 0.0
18/07:00am 10.8 5.7 0.8 50 4.1 NNE 17 24 9 13 1009.5 1009.5 0.0
18/06:30am 10.5 5.3 0.3 49 4.1 NNE 17 24 9 13 1009.7 1009.7 0.0
18/06:00am 10.9 5.2 0.3 48 4.3 NNE 20 32 11 17 1009.3 1009.3 0.0
18/05:30am 10.6 5.5 0.9 51 4.0 NNE 17 26 9 14 1009.4 1009.4 0.0
18/05:00am 10.6 6.3 1.2 52 3.9 NNE 13 19 7 10 1009.8 1009.8 0.0
18/04:30am 11.1 6.9 1.9 53 3.9 NNE 13 19 7 10 1009.9 1009.9 0.0
18/04:00am 12.2 7.7 0.0 43 5.0 N 13 22 7 12 1010.0 1010.0 0.0
18/03:30am 11.8 7.5 1.2 48 4.5 N 13 20 7 11 1010.2 1010.2 0.0
18/03:00am 11.9 7.3 1.5 49 4.4 N 15 24 8 13 1010.5 1010.5 0.0
18/02:30am 11.8 7.7 2.3 52 4.1 NNE 13 20 7 11 1010.9 1010.9 0.0
18/02:00am 11.7 7.5 1.9 51 4.2 NNE 13 19 7 10 1011.3 1011.3 0.0
18/01:30am 11.9 8.2 2.1 51 4.2 NNE 11 19 6 10 1011.9 1011.9 0.0
18/01:00am 10.3 7.2 3.8 64 2.9 NNE 9 11 5 6 1012.3 1012.3 0.0
18/12:30am 10.1 7.1 4.0 66 2.7 NNE 9 11 5 6 1012.7 1012.7 0.0
18/12:00am 10.7 7.7 4.0 63 3.0 NNE 9 13 5 7 1013.0 1013.0 0.0
 
Date/Time
EST
Temp
°C
App
Temp
°C
Dew
Point
°C
Rel
Hum
%
Delta-T
°C
Wind Press
QNH
hPa
Press
MSL
hPa
Rain since
9am
mm
Dir  Spd
km/h
Gust
km/h
Spd
kts
Gust
kts
17/11:30pm 11.1 7.2 3.2 58 3.5 NNE 13 17 7 9 1013.0 1013.0 0.0
17/11:00pm 11.2 7.7 3.5 59 3.4 NNE 11 20 6 11 1013.1 1013.1 0.0
17/10:30pm 11.4 7.5 3.2 57 3.6 NE 13 20 7 11 1013.4 1013.4 0.0
17/10:00pm 11.4 7.6 3.7 59 3.4 NNE 13 19 7 10 1013.9 1013.9 0.0
17/09:30pm 11.8 8.0 3.8 58 3.6 NNE 13 20 7 11 1014.2 1014.2 0.0
17/09:00pm 12.4 7.7 3.1 53 4.1 NNE 17 26 9 14 1014.4 1014.4 0.0
17/08:30pm 12.9 8.2 3.0 51 4.4 NNE 17 26 9 14 1014.6 1014.6 0.0
17/08:00pm 13.7 9.3 2.9 48 4.8 NNE 15 22 8 12 1014.8 1014.8 0.0
17/07:30pm 15.0 10.4 1.5 40 5.9 N 15 20 8 11 1014.9 1014.9 0.0
17/07:00pm 15.2 11.1 2.1 41 5.8 N 13 19 7 10 1015.0 1015.0 0.0
17/06:30pm 15.7 10.8 1.8 39 6.1 N 17 22 9 12 1015.1 1015.1 0.0
17/06:00pm 16.4 11.5 1.7 37 6.5 N 17 30 9 16 1015.2 1015.2 0.0
17/05:30pm 17.2 11.7 1.6 35 6.9 N 20 32 11 17 1015.0 1015.0 0.0
17/05:00pm 17.4 11.9 1.8 35 7.0 NW 20 35 11 19 1015.0 1015.0 0.0
17/04:30pm 17.8 12.6 2.2 35 7.1 N 19 28 10 15 1015.2 1015.2 0.0
17/04:00pm 17.5 12.3 2.3 36 6.9 NNW 19 28 10 15 1015.3 1015.3 0.0
17/03:30pm 17.9 12.7 2.6 36 7.0 NNW 19 32 10 17 1015.5 1015.5 0.0
17/03:00pm 17.5 12.1 2.7 37 6.8 NNW 20 39 11 21 1015.9 1015.9 0.0
17/02:30pm 17.8 12.1 2.9 37 6.9 NNW 22 35 12 19 1016.3 1016.3 0.0
17/02:00pm 17.3 10.4 2.5 37 6.7 NW 28 46 15 25 1016.7 1016.7 0.0
17/01:30pm 16.9 10.0 2.5 38 6.5 NW 28 43 15 23 1017.1 1017.1 0.0
17/01:19pm 17.4 10.6 3.3 39 6.5 NNW 28 46 15 25 1017.2 1017.2 0.0
17/01:00pm 17.3 11.4 3.9 41 6.3 NNW 24 37 13 20 1017.6 1017.6 0.0
17/12:30pm 16.6 9.5 3.3 41 6.1 NW 30 43 16 23 1018.3 1018.3 0.0
17/12:00pm 17.0 10.2 3.3 40 6.3 NW 28 43 15 23 1018.7 1018.7 0.0
17/11:30am 16.4 10.5 3.8 43 5.8 NNW 24 35 13 19 1019.1 1019.1 0.0
17/11:01am 15.3 8.4 2.8 43 5.6 NW 28 46 15 25 1019.5 1019.5 0.0
17/11:00am 15.3 8.9 3.1 44 5.5 NW 26 46 14 25 1019.5 1019.5 0.0
17/10:30am 14.7 8.7 3.2 46 5.2 NNW 24 37 13 20 1019.9 1019.9 0.0
17/10:00am 13.9 8.4 4.2 52 4.4 NNW 22 32 12 17 1020.2 1020.2 0.0
17/09:30am 12.4 8.9 5.6 63 3.2 N 13 20 7 11 1020.6 1020.6 0.0
17/09:00am 10.9 7.4 5.4 69 2.5 N 13 19 7 10 1021.0 1021.0 0.0
17/08:30am 9.7 6.2 5.5 75 1.9 N 13 19 7 10 1021.3 1021.3 0.0
17/08:00am 8.4 5.8 6.0 85 1.1 NNW 9 15 5 8 1021.3 1021.3 0.0
17/07:30am 7.1 5.0 6.0 93 0.5 N 6 11 3 6 1021.4 1021.4 0.0
17/07:00am 4.9 2.8 3.9 93 0.4 NW 4 6 2 3 1021.2 1021.2 0.0
17/06:30am 4.5 1.8 3.5 93 0.4 NW 7 7 4 4 1021.3 1021.3 0.0
17/06:00am 4.9 2.4 3.9 93 0.4 NW 6 7 3 4 1021.2 1021.2 0.0
17/05:30am 5.3 2.7 4.3 93 0.4 NW 7 9 4 5 1021.1 1021.1 0.0
17/05:00am 5.3 2.7 4.3 93 0.4 NW 7 11 4 6 1020.9 1020.9 0.0
17/04:30am 5.6 3.1 4.6 93 0.4 NW 7 9 4 5 1020.7 1020.7 0.0
17/04:00am 6.2 3.8 5.2 93 0.4 NW 7 11 4 6 1020.6 1020.6 0.0
17/03:30am 6.7 4.0 5.7 93 0.4 NW 9 11 5 6 1020.8 1020.8 0.0
17/03:00am 6.7 4.4 5.7 93 0.4 NW 7 9 4 5 1021.0 1021.0 0.0
17/02:30am 6.8 4.5 5.7 93 0.5 NW 7 9 4 5 1021.2 1021.2 0.0
17/02:00am 6.6 4.3 5.6 93 0.4 NNW 7 9 4 5 1021.4 1021.4 0.0
17/01:30am 6.5 4.3 5.5 93 0.4 NW 6 9 3 5 1021.6 1021.6 0.0
17/01:00am 7.0 4.9 5.9 93 0.5 NNW 6 6 3 3 1021.7 1021.7 0.0
17/12:30am 7.4 5.2 6.3 93 0.5 NW 7 9 4 5 1021.7 1021.7 0.0
17/12:00am 7.3 5.1 6.2 93 0.5 NW 7 9 4 5 1021.8 1021.8 0.0
 
Date/Time
EST
Temp
°C
App
Temp
°C
Dew
Point
°C
Rel
Hum
%
Delta-T
°C
Wind Press
QNH
hPa
Press
MSL
hPa
Rain since
9am
mm
Dir  Spd
km/h
Gust
km/h
Spd
kts
Gust
kts
16/11:30pm 7.0 4.9 5.9 93 0.5 NW 6 7 3 4 1022.0 1022.0 0.0
16/11:00pm 7.2 5.2 6.1 93 0.5 NW 6 9 3 5 1022.2 1022.2 0.0
16/10:30pm 7.5 5.5 6.4 93 0.5 NW 6 7 3 4 1022.5 1022.5 0.0
16/10:00pm 8.0 6.5 6.8 92 0.6 NW 4 6 2 3 1022.5 1022.5 0.0
16/09:30pm 8.2 6.4 7.0 92 0.6 NW 6 6 3 3 1022.7 1022.7 0.0
16/09:00pm 8.6 6.6 6.2 85 1.1 NW 6 9 3 5 1022.7 1022.7 0.0
16/08:30pm 9.4 7.4 6.1 80 1.5 NW 6 7 3 4 1022.5 1022.5 0.0
16/08:00pm 9.9 7.7 6.1 77 1.7 NW 7 9 4 5 1022.4 1022.4 0.0
16/07:30pm 10.3 8.2 5.9 74 2.0 NW 6 9 3 5 1022.4 1022.4 0.0
16/07:00pm 10.3 7.5 5.3 71 2.3 NW 9 13 5 7 1022.1 1022.1 0.0

Other Formats:

Comma delimited format used in spreadsheet applications
http://www.bom.gov.au/fwo/IDV60801/IDV60801.94857.axf

JavaScript Object Notation format (JSON) in row-major order
http://www.bom.gov.au/fwo/IDV60801/IDV60801.94857.json